Time;durP1;ratioP1;P1;durP2;ratioP2;P2;SDS_P1;SDS_P2;PMS_P1;PMS_P2;Temp;Humidity;BMP_temperature;BMP_pressure;BME280_temperature;BME280_humidity;BME280_pressure;Samples;Min_cycle;Max_cycle;Signal;HPM_P1;HPM_P2
2022/07/26 00:01:05;;;;;;;2.10;1.13;;;16.80;98.00;;;;;;5051780;28;20057;-44
2022/07/26 00:03:31;;;;;;;1.60;0.90;;;16.70;98.10;;;;;;5051663;28;20035;-49
2022/07/26 00:05:57;;;;;;;3.88;1.20;;;16.70;98.30;;;;;;5041573;28;20021;-48
2022/07/26 00:08:22;;;;;;;1.35;0.90;;;16.60;98.50;;;;;;5032706;28;20111;-48
2022/07/26 00:10:49;;;;;;;1.75;0.90;;;16.60;98.50;;;;;;5050189;28;20048;-47
2022/07/26 00:13:18;;;;;;;2.35;0.98;;;16.50;98.60;;;;;;5051686;28;20025;-47
2022/07/26 00:15:45;;;;;;;2.50;0.95;;;16.50;98.70;;;;;;5051376;28;20384;-46
2022/07/26 00:18:12;;;;;;;2.28;0.90;;;16.40;98.80;;;;;;5051484;28;20107;-55
2022/07/26 00:20:39;;;;;;;2.33;0.80;;;16.40;98.80;;;;;;5035274;28;20055;-47
2022/07/26 00:23:05;;;;;;;2.05;0.80;;;16.30;99.10;;;;;;5031581;28;20026;-50
2022/07/26 00:25:31;;;;;;;1.95;0.90;;;16.30;99.10;;;;;;5031421;28;20046;-49
2022/07/26 00:27:57;;;;;;;2.08;1.00;;;16.30;99.10;;;;;;5031317;28;20026;-50
2022/07/26 00:30:23;;;;;;;0.90;0.80;;;16.20;99.30;;;;;;5031440;28;20029;-46
2022/07/26 00:32:49;;;;;;;2.78;0.93;;;16.20;99.40;;;;;;5031169;28;20080;-48
2022/07/26 00:35:15;;;;;;;2.67;0.90;;;16.10;99.50;;;;;;5031321;28;20030;-47
2022/07/26 00:37:40;;;;;;;4.25;0.90;;;16.10;99.50;;;;;;5030952;28;20041;-45
2022/07/26 00:40:07;;;;;;;2.50;0.98;;;16.10;99.70;;;;;;5031219;28;20447;-53
2022/07/26 00:42:33;;;;;;;4.95;1.10;;;16.10;99.80;;;;;;5030923;28;20013;-45
2022/07/26 00:45:00;;;;;;;3.60;0.82;;;16.00;99.60;;;;;;5031167;28;20076;-54
2022/07/26 00:47:25;;;;;;;1.77;0.95;;;16.00;99.80;;;;;;5031089;28;20388;-54
2022/07/26 00:49:51;;;;;;;0.90;0.70;;;15.90;99.80;;;;;;5031133;28;20018;-48
2022/07/26 00:52:17;;;;;;;1.95;1.00;;;15.90;99.90;;;;;;5031149;28;20065;-47
2022/07/26 00:54:44;;;;;;;1.60;1.00;;;15.80;99.90;;;;;;5030969;28;20108;-51
2022/07/26 00:57:11;;;;;;;1.33;1.00;;;15.80;99.90;;;;;;5035606;28;20067;-48
2022/07/26 00:59:38;;;;;;;2.10;0.90;;;15.70;99.90;;;;;;5050948;28;20148;-45
2022/07/26 01:02:05;;;;;;;4.78;1.30;;;15.70;99.90;;;;;;5050803;28;20100;-44
2022/07/26 01:04:31;;;;;;;1.58;1.00;;;15.60;99.90;;;;;;5042807;28;20117;-46
2022/07/26 01:06:57;;;;;;;1.58;1.00;;;15.60;99.90;;;;;;5036127;28;20112;-45
2022/07/26 01:09:23;;;;;;;3.10;0.85;;;15.60;99.90;;;;;;5044183;28;20036;-45
2022/07/26 01:11:49;;;;;;;3.55;1.00;;;15.50;99.90;;;;;;5050720;28;20032;-45
2022/07/26 01:14:18;;;;;;;1.98;0.90;;;15.30;99.90;;;;;;5050637;28;20388;-45
2022/07/26 01:16:44;;;;;;;3.88;1.67;;;15.30;99.90;;;;;;5050724;28;20025;-48
2022/07/26 01:19:10;;;;;;;2.80;1.10;;;15.30;99.90;;;;;;5053582;28;20055;-50
2022/07/26 01:21:39;;;;;;;2.22;1.10;;;15.20;99.90;;;;;;5054971;28;20396;-45
2022/07/26 01:24:05;;;;;;;2.20;1.30;;;15.20;99.90;;;;;;5054627;28;20391;-45
2022/07/26 01:26:31;;;;;;;2.75;1.10;;;15.20;99.90;;;;;;5054718;28;20551;-46
2022/07/26 01:28:57;;;;;;;3.40;1.23;;;15.10;99.90;;;;;;5054690;28;20104;-47
2022/07/26 01:31:22;;;;;;;3.85;1.10;;;15.10;99.90;;;;;;5054824;28;20121;-47
2022/07/26 01:33:48;;;;;;;2.25;1.10;;;15.10;99.90;;;;;;5054349;28;20025;-50
2022/07/26 01:36:14;;;;;;;2.63;1.00;;;15.00;99.90;;;;;;5038504;28;20091;-45
2022/07/26 01:38:41;;;;;;;2.00;1.05;;;15.00;99.90;;;;;;5040473;28;20049;-45
2022/07/26 01:41:07;;;;;;;2.22;1.20;;;15.00;99.90;;;;;;5041226;28;20468;-52
2022/07/26 01:43:33;;;;;;;1.80;1.13;;;15.00;99.90;;;;;;5053365;28;20462;-56
2022/07/26 01:45:59;;;;;;;1.50;0.98;;;14.90;99.90;;;;;;5039870;28;20053;-45
2022/07/26 01:48:25;;;;;;;3.20;0.90;;;14.80;99.90;;;;;;5046487;28;20040;-45
2022/07/26 01:50:51;;;;;;;2.28;1.10;;;14.70;99.90;;;;;;5034305;28;20037;-44
2022/07/26 01:53:16;;;;;;;2.97;1.33;;;14.60;99.90;;;;;;5046983;28;20041;-44
2022/07/26 01:55:42;;;;;;;1.70;0.90;;;14.50;99.90;;;;;;5034146;28;20024;-44
2022/07/26 01:58:08;;;;;;;1.63;1.10;;;14.60;99.90;;;;;;5046513;28;20021;-48
2022/07/26 02:00:34;;;;;;;2.85;1.10;;;14.60;99.90;;;;;;5054288;28;20037;-47
2022/07/26 02:03:00;;;;;;;1.83;1.00;;;14.50;99.90;;;;;;5054085;28;20029;-47
2022/07/26 02:05:26;;;;;;;2.33;1.30;;;14.50;99.90;;;;;;5039633;28;20029;-50
2022/07/26 02:07:52;;;;;;;3.15;1.10;;;14.50;99.90;;;;;;5042777;28;20108;-46
2022/07/26 02:10:18;;;;;;;2.75;1.30;;;14.50;99.90;;;;;;5053873;28;20033;-49
2022/07/26 02:12:44;;;;;;;1.95;1.08;;;14.50;99.90;;;;;;5053721;28;20021;-51
2022/07/26 02:15:12;;;;;;;3.17;1.40;;;14.60;99.90;;;;;;5035228;28;20480;-48
2022/07/26 02:17:37;;;;;;;2.70;1.00;;;14.60;99.90;;;;;;5052584;28;20056;-52
2022/07/26 02:20:04;;;;;;;2.53;1.27;;;14.60;99.90;;;;;;5053772;28;20075;-51
2022/07/26 02:22:30;;;;;;;2.55;1.33;;;14.70;99.90;;;;;;5048999;28;20132;-48
2022/07/26 02:24:56;;;;;;;2.63;1.30;;;14.70;99.90;;;;;;5053148;28;20491;-50
2022/07/26 02:27:21;;;;;;;5.43;1.05;;;14.80;99.90;;;;;;5053401;28;20021;-53
2022/07/26 02:29:47;;;;;;;2.42;0.98;;;14.90;99.90;;;;;;5053708;28;20020;-47
2022/07/26 02:32:13;;;;;;;1.85;1.00;;;14.90;99.90;;;;;;5053687;28;20032;-49
2022/07/26 02:34:39;;;;;;;2.35;1.10;;;15.00;99.90;;;;;;5048611;28;20017;-46
2022/07/26 02:37:04;;;;;;;2.03;1.13;;;15.00;99.90;;;;;;5053176;28;20501;-59
2022/07/26 02:39:30;;;;;;;2.05;0.93;;;15.20;99.90;;;;;;5053360;28;20025;-45
2022/07/26 02:41:57;;;;;;;1.73;1.10;;;15.20;99.90;;;;;;5053605;28;20025;-49
2022/07/26 02:44:24;;;;;;;1.85;1.00;;;15.40;99.90;;;;;;5053332;28;20057;-56
2022/07/26 02:46:50;;;;;;;2.83;1.08;;;15.40;99.90;;;;;;5053351;28;20025;-46
2022/07/26 02:49:16;;;;;;;4.97;1.13;;;15.40;99.90;;;;;;5053239;28;20479;-55
2022/07/26 02:51:41;;;;;;;2.35;1.10;;;15.50;99.90;;;;;;5053130;28;20020;-47
2022/07/26 02:54:07;;;;;;;3.22;1.10;;;15.50;99.90;;;;;;5053210;28;20061;-50
2022/07/26 02:56:33;;;;;;;2.60;1.10;;;15.50;99.90;;;;;;5039769;28;20025;-49
2022/07/26 02:58:58;;;;;;;2.42;0.95;;;15.60;99.90;;;;;;5052256;28;20394;-46
2022/07/26 03:01:24;;;;;;;2.72;1.25;;;15.60;99.90;;;;;;5053163;28;20027;-48
2022/07/26 03:03:50;;;;;;;2.20;1.00;;;15.60;99.90;;;;;;5050853;28;20052;-55
2022/07/26 03:06:16;;;;;;;1.80;1.00;;;15.60;99.90;;;;;;5036375;28;20030;-53
2022/07/26 03:08:42;;;;;;;2.25;1.10;;;15.60;99.90;;;;;;5048156;28;20032;-47
2022/07/26 03:11:07;;;;;;;2.72;1.00;;;15.60;99.90;;;;;;5052891;28;20041;-50
2022/07/26 03:13:33;;;;;;;5.00;1.10;;;15.50;99.90;;;;;;5052781;28;20024;-48
2022/07/26 03:15:59;;;;;;;2.22;0.93;;;15.50;99.90;;;;;;5052618;28;20074;-49
2022/07/26 03:18:25;;;;;;;1.92;1.00;;;15.40;99.90;;;;;;5052740;28;20491;-50
2022/07/26 03:20:50;;;;;;;1.92;1.02;;;15.40;99.90;;;;;;5052524;28;20209;-48
2022/07/26 03:23:16;;;;;;;5.15;1.52;;;15.30;99.90;;;;;;5052597;28;20056;-51
2022/07/26 03:25:42;;;;;;;2.72;1.08;;;15.30;99.90;;;;;;5052403;28;20037;-50
2022/07/26 03:28:08;;;;;;;2.13;1.00;;;15.20;99.90;;;;;;5052554;28;20039;-54
2022/07/26 03:30:34;;;;;;;2.88;1.30;;;15.20;99.90;;;;;;5052598;28;20029;-49
2022/07/26 03:33:00;;;;;;;1.90;1.00;;;15.10;99.90;;;;;;5052417;28;20027;-44
2022/07/26 03:35:26;;;;;;;2.67;1.08;;;15.00;99.90;;;;;;5045668;28;20024;-47
2022/07/26 03:37:52;;;;;;;2.45;1.10;;;14.90;99.90;;;;;;5052137;28;20090;-45
2022/07/26 03:40:18;;;;;;;2.88;1.00;;;14.80;99.90;;;;;;5051880;28;20029;-46
2022/07/26 03:42:45;;;;;;;1.52;0.90;;;14.90;99.90;;;;;;5051993;28;20036;-49
2022/07/26 03:45:11;;;;;;;2.35;1.17;;;14.80;99.90;;;;;;5050544;28;20463;-51
2022/07/26 03:47:36;;;;;;;3.45;1.13;;;14.90;99.90;;;;;;5045985;28;20013;-49
2022/07/26 03:50:04;;;;;;;4.32;1.40;;;14.90;99.90;;;;;;5050828;28;20033;-50
2022/07/26 03:52:30;;;;;;;4.78;1.48;;;14.90;99.90;;;;;;5039629;28;20040;-51
2022/07/26 03:54:55;;;;;;;4.90;2.30;;;14.90;99.90;;;;;;5046076;28;20017;-47
2022/07/26 03:57:21;;;;;;;2.03;1.60;;;14.90;99.90;;;;;;5044662;28;20053;-49
2022/07/26 03:59:47;;;;;;;2.55;1.45;;;14.90;99.90;;;;;;5051686;28;20483;-49
2022/07/26 04:02:12;;;;;;;3.70;1.75;;;14.90;99.90;;;;;;5050711;28;20021;-45
2022/07/26 04:04:38;;;;;;;2.72;1.40;;;14.90;99.90;;;;;;5035800;28;20038;-45
2022/07/26 04:07:04;;;;;;;4.00;1.90;;;14.90;99.90;;;;;;5028998;28;20025;-47
2022/07/26 04:09:29;;;;;;;2.63;1.55;;;14.80;99.90;;;;;;5024453;28;20030;-44
2022/07/26 04:11:55;;;;;;;3.10;2.13;;;14.80;99.90;;;;;;5027863;28;20026;-46
2022/07/26 04:14:21;;;;;;;2.78;1.33;;;14.90;99.90;;;;;;5042952;28;20024;-47
2022/07/26 04:16:46;;;;;;;4.40;1.40;;;14.90;99.90;;;;;;5023388;28;20392;-48
2022/07/26 04:19:12;;;;;;;4.80;1.42;;;14.90;99.90;;;;;;5045071;28;20035;-48
2022/07/26 04:21:38;;;;;;;5.75;1.58;;;15.00;99.90;;;;;;5026783;28;20104;-53
2022/07/26 04:24:04;;;;;;;4.60;1.77;;;15.00;99.90;;;;;;5047947;28;20457;-47
2022/07/26 04:26:30;;;;;;;2.92;1.38;;;15.10;99.90;;;;;;5049478;28;20017;-44
2022/07/26 04:28:56;;;;;;;2.13;1.40;;;15.10;99.90;;;;;;5051102;28;20494;-45
2022/07/26 04:31:22;;;;;;;3.72;1.65;;;15.10;99.90;;;;;;5051259;28;20029;-47
2022/07/26 04:33:47;;;;;;;3.47;1.60;;;15.10;99.90;;;;;;5047765;28;20601;-48
2022/07/26 04:36:14;;;;;;;3.38;1.30;;;15.10;99.90;;;;;;5032164;28;20423;-44
2022/07/26 04:38:40;;;;;;;3.55;1.50;;;15.20;99.90;;;;;;5022595;28;20061;-51
2022/07/26 04:41:06;;;;;;;2.72;1.50;;;15.20;99.90;;;;;;5030630;28;20377;-48
2022/07/26 04:43:31;;;;;;;3.85;1.45;;;15.20;99.90;;;;;;5028184;28;20040;-48
2022/07/26 04:45:57;;;;;;;2.83;1.50;;;15.30;99.90;;;;;;5030420;28;20029;-47
2022/07/26 04:48:23;;;;;;;4.70;1.60;;;15.30;99.90;;;;;;5031028;28;20133;-51
2022/07/26 04:50:49;;;;;;;3.30;1.73;;;15.30;99.90;;;;;;5023014;28;20033;-44
2022/07/26 04:53:15;;;;;;;5.95;1.90;;;15.30;99.90;;;;;;5030248;28;20030;-48
2022/07/26 04:55:41;;;;;;;4.03;1.80;;;15.30;99.90;;;;;;5029946;28;20104;-44
2022/07/26 04:58:08;;;;;;;3.78;1.67;;;15.40;99.90;;;;;;5049708;28;20097;-48
2022/07/26 05:00:34;;;;;;;5.03;1.88;;;15.40;99.90;;;;;;5043140;28;20503;-49
2022/07/26 05:03:00;;;;;;;4.88;1.83;;;15.50;99.90;;;;;;5049599;28;20056;-53
2022/07/26 05:05:29;;;;;;;6.93;1.60;;;15.60;99.90;;;;;;5042965;28;20025;-46
2022/07/26 05:07:57;;;;;;;4.75;1.90;;;15.60;99.90;;;;;;5047066;28;20025;-48
2022/07/26 05:10:32;;;;;;;5.13;1.75;;;15.60;99.90;;;;;;5041868;28;20032;-46
2022/07/26 05:12:57;;;;;;;2.28;1.38;;;15.70;99.90;;;;;;5045853;28;20373;-49
2022/07/26 05:15:24;;;;;;;3.20;1.52;;;15.80;99.90;;;;;;5041254;28;20029;-49
2022/07/26 05:17:49;;;;;;;4.15;1.30;;;15.90;99.90;;;;;;5033229;28;20037;-45
2022/07/26 05:20:16;;;;;;;2.75;1.25;;;15.90;99.90;;;;;;5037584;28;20040;-45
2022/07/26 05:22:43;;;;;;;4.13;1.40;;;15.90;99.90;;;;;;5042931;28;20096;-44
2022/07/26 05:25:09;;;;;;;2.88;1.52;;;16.00;99.90;;;;;;5045572;28;20192;-53
2022/07/26 05:27:35;;;;;;;4.15;1.40;;;16.00;99.90;;;;;;5042160;28;20056;-44
2022/07/26 05:30:01;;;;;;;6.40;1.75;;;16.10;99.90;;;;;;5049377;28;20029;-44
2022/07/26 05:32:27;;;;;;;4.18;1.67;;;16.10;99.90;;;;;;5050664;28;20040;-46
2022/07/26 05:34:52;;;;;;;3.15;1.50;;;16.20;99.90;;;;;;5049767;28;20052;-50
2022/07/26 05:37:19;;;;;;;4.20;1.80;;;16.30;99.70;;;;;;5037708;28;20053;-50
2022/07/26 05:39:44;;;;;;;3.85;1.20;;;16.30;99.90;;;;;;5048974;28;20072;-49
2022/07/26 05:42:10;;;;;;;2.55;1.30;;;16.40;99.90;;;;;;5048662;28;20061;-47
2022/07/26 05:44:36;;;;;;;3.47;1.35;;;16.50;99.90;;;;;;5050599;28;20555;-47
2022/07/26 05:47:02;;;;;;;2.65;1.25;;;16.60;99.90;;;;;;5050390;28;20032;-51
2022/07/26 05:49:27;;;;;;;4.65;1.45;;;16.70;99.90;;;;;;5050503;28;20033;-47
2022/07/26 05:51:53;;;;;;;3.22;1.50;;;16.80;99.90;;;;;;5050313;28;20021;-52
2022/07/26 05:54:20;;;;;;;3.33;1.50;;;16.80;99.10;;;;;;5047134;28;20029;-47
2022/07/26 05:56:46;;;;;;;4.50;1.77;;;16.90;99.70;;;;;;5040136;28;20017;-48
2022/07/26 05:59:12;;;;;;;3.10;1.20;;;16.90;98.80;;;;;;5048907;28;20408;-48
2022/07/26 06:01:38;;;;;;;4.53;1.63;;;17.00;98.70;;;;;;5050445;28;20020;-49
2022/07/26 06:04:04;;;;;;;2.85;1.20;;;17.00;98.80;;;;;;5051198;28;20021;-48
2022/07/26 06:06:29;;;;;;;5.18;1.83;;;17.10;99.30;;;;;;5054049;28;20784;-54
2022/07/26 06:08:55;;;;;;;3.72;1.55;;;17.20;97.80;;;;;;5054358;28;20021;-50
2022/07/26 06:11:21;;;;;;;7.20;2.15;;;17.20;97.70;;;;;;5039316;28;20391;-46
2022/07/26 06:13:46;;;;;;;4.30;1.45;;;17.30;98.30;;;;;;5039288;28;20032;-48
2022/07/26 06:16:13;;;;;;;4.13;1.50;;;17.40;98.40;;;;;;5049529;28;20024;-46
2022/07/26 06:18:38;;;;;;;4.97;1.30;;;17.40;96.90;;;;;;5053809;28;20083;-47
2022/07/26 06:21:04;;;;;;;5.22;2.15;;;17.50;97.80;;;;;;5053883;28;20033;-50
2022/07/26 06:23:30;;;;;;;4.22;1.92;;;17.50;97.20;;;;;;5053609;28;20087;-51
2022/07/26 06:25:56;;;;;;;4.47;1.50;;;17.50;97.90;;;;;;5053162;28;20037;-54
2022/07/26 06:28:22;;;;;;;5.80;1.63;;;17.60;97.10;;;;;;5047465;28;20123;-51
2022/07/26 06:30:48;;;;;;;4.38;1.45;;;17.60;97.10;;;;;;5033678;28;20037;-47
2022/07/26 06:33:13;;;;;;;4.57;1.55;;;17.60;97.40;;;;;;5033383;28;20028;-54
2022/07/26 06:35:39;;;;;;;4.40;1.40;;;17.60;98.30;;;;;;5033327;28;20021;-48
2022/07/26 06:38:06;;;;;;;5.53;1.70;;;17.50;99.50;;;;;;5033507;28;20033;-50
2022/07/26 06:40:32;;;;;;;5.13;1.80;;;17.50;99.90;;;;;;5032940;28;20475;-49
2022/07/26 06:42:59;;;;;;;3.88;1.60;;;17.50;99.90;;;;;;5033130;28;20029;-49
2022/07/26 06:45:25;;;;;;;6.28;1.77;;;17.50;99.90;;;;;;5035107;28;20079;-49
2022/07/26 06:47:51;;;;;;;5.03;1.88;;;17.40;99.90;;;;;;5033280;28;20053;-51
2022/07/26 06:50:16;;;;;;;5.10;2.10;;;17.40;99.90;;;;;;5033300;28;20104;-52
2022/07/26 06:52:42;;;;;;;4.53;1.80;;;17.40;99.90;;;;;;5033157;28;20555;-50
2022/07/26 06:55:08;;;;;;;4.03;2.00;;;17.40;99.90;;;;;;5041110;28;20475;-44
2022/07/26 06:57:35;;;;;;;8.13;2.05;;;17.50;99.90;;;;;;5047330;28;20021;-44
2022/07/26 07:00:02;;;;;;;8.15;1.95;;;17.80;99.90;;;;;;5050409;28;20029;-45
2022/07/26 07:02:27;;;;;;;4.22;1.75;;;18.00;99.90;;;;;;5048854;28;20087;-45
2022/07/26 07:04:53;;;;;;;4.10;1.80;;;18.40;99.90;;;;;;5045198;28;20108;-50
2022/07/26 07:07:19;;;;;;;5.30;1.60;;;18.90;99.90;;;;;;5039685;28;20057;-48
2022/07/26 07:09:45;;;;;;;4.00;1.55;;;19.30;99.80;;;;;;5032694;28;20057;-50
2022/07/26 07:12:10;;;;;;;5.38;1.75;;;19.50;97.80;;;;;;5032600;28;20076;-48
2022/07/26 07:14:37;;;;;;;5.50;1.88;;;19.70;97.60;;;;;;5032728;28;20017;-48
2022/07/26 07:17:03;;;;;;;4.55;1.50;;;19.50;96.80;;;;;;5031830;28;20034;-45
2022/07/26 07:19:29;;;;;;;3.45;1.63;;;19.50;98.10;;;;;;5032393;28;20045;-46
2022/07/26 07:21:54;;;;;;;4.18;1.65;;;19.50;97.60;;;;;;5032748;28;20026;-50
2022/07/26 07:24:20;;;;;;;4.40;2.00;;;19.50;98.20;;;;;;5032718;28;20392;-55
2022/07/26 07:26:46;;;;;;;5.22;1.65;;;19.60;96.90;;;;;;5032512;28;20022;-48
2022/07/26 07:29:13;;;;;;;6.90;1.70;;;19.70;97.70;;;;;;5032326;28;20018;-45
2022/07/26 07:31:40;;;;;;;5.07;1.85;;;19.60;95.80;;;;;;5032338;28;20834;-45
2022/07/26 07:34:06;;;;;;;7.18;1.90;;;19.50;96.70;;;;;;5042524;28;20033;-50
2022/07/26 07:36:31;;;;;;;5.22;1.95;;;19.40;95.50;;;;;;5037246;28;20037;-49
2022/07/26 07:38:57;;;;;;;5.10;1.65;;;19.40;96.70;;;;;;5031913;28;20188;-46
2022/07/26 07:41:23;;;;;;;5.47;1.80;;;19.40;97.00;;;;;;5031808;28;20030;-49
2022/07/26 07:43:48;;;;;;;4.40;1.75;;;19.40;97.10;;;;;;5032072;28;20562;-50
2022/07/26 07:46:14;;;;;;;4.80;1.63;;;19.40;96.90;;;;;;5032235;28;20358;-45
2022/07/26 07:48:41;;;;;;;6.93;2.13;;;19.30;96.30;;;;;;5032129;28;20022;-45
2022/07/26 07:51:07;;;;;;;6.47;1.70;;;19.40;97.40;;;;;;5032103;28;20088;-50
2022/07/26 07:53:33;;;;;;;4.10;1.95;;;19.50;97.50;;;;;;5032066;28;20021;-48
2022/07/26 07:55:58;;;;;;;4.63;1.70;;;19.50;96.90;;;;;;5035072;28;20078;-56
2022/07/26 07:58:24;;;;;;;6.05;2.05;;;19.70;95.80;;;;;;5051935;28;20021;-48
2022/07/26 08:00:50;;;;;;;4.65;1.90;;;19.70;95.70;;;;;;5051633;28;20048;-48
2022/07/26 08:03:16;;;;;;;5.65;1.95;;;20.00;97.00;;;;;;5052044;28;20025;-47
2022/07/26 08:05:41;;;;;;;6.55;1.95;;;20.30;96.30;;;;;;5051852;28;20055;-45
2022/07/26 08:08:07;;;;;;;6.15;1.85;;;20.70;94.70;;;;;;5047057;28;20027;-47
2022/07/26 08:10:33;;;;;;;5.30;1.73;;;21.20;94.50;;;;;;5030760;28;20083;-43
2022/07/26 08:12:58;;;;;;;4.75;1.50;;;21.80;95.10;;;;;;5031169;28;20037;-50
2022/07/26 08:15:26;;;;;;;5.00;1.95;;;22.70;92.10;;;;;;5031243;28;20132;-44
2022/07/26 08:17:52;;;;;;;3.95;1.50;;;23.20;89.80;;;;;;5031464;28;20479;-48
2022/07/26 08:20:18;;;;;;;5.60;1.40;;;23.50;88.00;;;;;;5031803;28;20037;-56
2022/07/26 08:22:44;;;;;;;5.15;1.58;;;23.30;83.90;;;;;;5031503;28;20381;-51
2022/07/26 08:25:10;;;;;;;4.97;1.58;;;23.10;86.60;;;;;;5031437;28;20036;-49
2022/07/26 08:27:35;;;;;;;3.65;1.50;;;22.70;85.90;;;;;;5031393;28;20037;-48
2022/07/26 08:30:02;;;;;;;4.20;1.63;;;22.50;88.80;;;;;;5033996;28;20028;-45
2022/07/26 08:32:28;;;;;;;4.82;1.50;;;22.40;87.90;;;;;;5048038;28;20028;-46
2022/07/26 08:34:54;;;;;;;3.80;1.48;;;22.50;87.50;;;;;;5046500;28;20025;-46
2022/07/26 08:37:19;;;;;;;4.63;1.83;;;22.70;88.30;;;;;;5047530;28;20049;-46
2022/07/26 08:39:49;;;;;;;4.55;1.40;;;22.70;86.20;;;;;;5038690;28;20400;-48
2022/07/26 08:42:18;;;;;;;;;;;22.20;86.00;;;;;;5047030;28;20025;-52
2022/07/26 08:44:46;;;;;;;3.72;1.50;;;22.40;87.70;;;;;;5047843;28;19905;-48
2022/07/26 08:47:16;;;;;;;3.17;1.40;;;22.80;88.50;;;;;;5043983;28;20451;-50
2022/07/26 08:49:43;;;;;;;2.72;1.30;;;23.20;85.00;;;;;;5050104;28;20021;-48
2022/07/26 08:52:11;;;;;;;4.15;1.48;;;23.60;82.40;;;;;;5045346;28;20096;-46
2022/07/26 08:54:45;;;;;;;4.50;1.65;;;23.90;82.00;;;;;;5047487;28;20017;-49
2022/07/26 08:57:11;;;;;;;3.13;1.40;;;24.00;79.90;;;;;;5049888;28;20025;-46
2022/07/26 08:59:38;;;;;;;2.58;1.20;;;23.90;80.60;;;;;;5045191;28;20354;-53
2022/07/26 09:02:06;;;;;;;4.10;1.30;;;23.80;81.90;;;;;;5031079;28;20101;-50
2022/07/26 09:04:34;;;;;;;3.97;1.30;;;23.40;81.30;;;;;;5045030;28;20369;-48
2022/07/26 09:07:10;;;;;;;4.47;1.23;;;23.10;83.20;;;;;;5048441;28;20520;-44
2022/07/26 09:09:39;;;;;;;4.90;1.35;;;23.10;83.30;;;;;;5039210;28;20077;-50
2022/07/26 09:12:17;;;;;;;4.18;0.98;;;22.80;83.00;;;;;;5035532;28;20014;-45
2022/07/26 09:14:46;;;;;;;3.55;0.93;;;22.50;85.20;;;;;;5032935;28;20091;-46
2022/07/26 09:17:17;;;;;;;4.93;1.20;;;22.20;84.50;;;;;;5030735;28;20021;-48
2022/07/26 09:19:43;;;;;;;2.42;1.10;;;21.80;85.40;;;;;;5030572;28;20076;-48
2022/07/26 09:22:14;;;;;;;3.40;1.20;;;21.40;87.10;;;;;;5030708;28;20373;-51
2022/07/26 09:24:45;;;;;;;4.28;1.30;;;21.50;88.10;;;;;;5030789;28;20538;-46
2022/07/26 09:27:13;;;;;;;1.67;0.93;;;21.70;88.80;;;;;;5030703;28;20079;-47
2022/07/26 09:29:50;;;;;;;4.05;1.25;;;21.80;87.60;;;;;;5030608;28;20099;-46
2022/07/26 09:32:22;;;;;;;4.53;1.20;;;21.70;88.20;;;;;;5030661;28;20159;-45
2022/07/26 09:35:09;;;;;;;3.58;1.30;;;21.70;88.70;;;;;;5030624;28;20021;-50
2022/07/26 09:37:39;;;;;;;1.88;0.85;;;21.60;89.50;;;;;;5031099;28;20128;-45
2022/07/26 09:40:08;;;;;;;2.33;0.98;;;21.40;88.40;;;;;;5036662;28;20041;-43
2022/07/26 09:42:34;;;;;;;5.10;1.55;;;20.90;88.50;;;;;;5040399;28;20094;-45
2022/07/26 09:45:00;;;;;;;2.53;1.02;;;20.70;89.80;;;;;;5039418;28;20049;-51
2022/07/26 09:47:36;;;;;;;4.35;1.40;;;20.80;91.00;;;;;;5034589;28;20472;-52
2022/07/26 09:50:15;;;;;;;2.30;1.00;;;20.80;90.10;;;;;;5034061;28;20021;-49
2022/07/26 09:53:06;;;;;;;2.60;1.00;;;20.90;90.00;;;;;;5066730;28;20025;-53
2022/07/26 09:55:32;;;;;;;3.55;1.10;;;21.00;90.10;;;;;;5031723;28;20472;-47
2022/07/26 09:58:02;;;;;;;3.15;1.00;;;21.00;90.20;;;;;;5053870;28;20029;-52
2022/07/26 10:00:29;;;;;;;3.47;1.00;;;21.00;90.20;;;;;;5054142;28;20037;-50
2022/07/26 10:02:54;;;;;;;2.28;0.80;;;21.00;88.90;;;;;;5054050;28;20021;-45
2022/07/26 10:05:20;;;;;;;3.67;0.90;;;20.80;89.10;;;;;;5054247;28;20040;-44
2022/07/26 10:07:50;;;;;;;2.67;1.20;;;21.20;90.90;;;;;;5053853;28;20112;-52
2022/07/26 10:10:29;;;;;;;2.38;0.80;;;21.40;90.00;;;;;;5047223;28;20580;-46
2022/07/26 10:12:55;;;;;;;1.10;0.90;;;21.60;90.30;;;;;;5042432;28;20029;-51
2022/07/26 10:15:39;;;;;;;2.60;0.90;;;21.70;90.00;;;;;;5042425;28;20369;-48
2022/07/26 10:18:07;;;;;;;1.75;1.00;;;21.70;89.10;;;;;;5050232;28;20028;-52
2022/07/26 10:20:47;;;;;;;2.35;0.90;;;21.80;88.90;;;;;;5033631;28;20052;-48
2022/07/26 10:23:39;;;;;;;2.15;1.00;;;21.80;88.80;;;;;;5033942;28;20022;-54
2022/07/26 10:26:08;;;;;;;3.30;0.90;;;21.70;88.80;;;;;;5026964;28;20032;-51
2022/07/26 10:28:35;;;;;;;3.50;1.10;;;21.70;89.10;;;;;;5033516;28;20029;-47
2022/07/26 10:31:19;;;;;;;1.55;0.90;;;21.70;88.30;;;;;;5033762;28;20025;-47
2022/07/26 10:33:47;;;;;;;1.48;0.80;;;21.70;87.20;;;;;;5032482;28;20091;-45
2022/07/26 10:36:30;;;;;;;1.35;1.00;;;21.60;88.40;;;;;;5032012;28;20416;-46
2022/07/26 10:39:09;;;;;;;3.40;1.02;;;21.80;86.20;;;;;;5042062;28;20451;-45
2022/07/26 10:41:41;;;;;;;2.33;1.00;;;21.80;85.30;;;;;;5048140;28;20029;-51
2022/07/26 10:44:14;;;;;;;1.58;0.90;;;22.00;86.70;;;;;;5052431;28;20059;-48
2022/07/26 10:46:57;;;;;;;2.80;1.15;;;22.30;87.90;;;;;;5038816;28;20034;-46
2022/07/26 10:49:40;;;;;;;1.73;1.00;;;22.70;85.80;;;;;;5033194;28;20030;-48
2022/07/26 10:52:07;;;;;;;2.30;0.98;;;22.90;84.20;;;;;;5032070;28;20105;-46
2022/07/26 10:54:55;;;;;;;2.20;0.90;;;23.10;84.10;;;;;;5041069;28;20028;-47
2022/07/26 10:57:29;;;;;;;2.33;0.90;;;23.30;82.60;;;;;;5052932;28;20029;-50
2022/07/26 10:59:56;;;;;;;2.72;1.15;;;23.50;82.10;;;;;;5053019;28;20460;-53
2022/07/26 11:02:34;;;;;;;4.82;1.30;;;23.60;82.10;;;;;;5053385;28;20074;-48
2022/07/26 11:05:11;;;;;;;1.90;1.30;;;23.70;82.90;;;;;;5025211;28;20453;-51
2022/07/26 11:07:52;;;;;;;5.20;1.63;;;23.80;81.40;;;;;;5040874;28;20026;-47
2022/07/26 11:10:28;;;;;;;2.42;1.58;;;24.10;79.90;;;;;;5042001;28;20029;-49
2022/07/26 11:13:08;;;;;;;4.15;1.42;;;24.30;81.20;;;;;;5053036;28;20083;-45
2022/07/26 11:15:39;;;;;;;2.33;1.23;;;24.20;81.00;;;;;;5053073;28;20021;-53
2022/07/26 11:18:20;;;;;;;2.13;1.38;;;24.30;81.30;;;;;;5050663;28;20180;-49
2022/07/26 11:20:48;;;;;;;2.67;1.23;;;24.40;81.90;;;;;;5040961;28;20037;-44
2022/07/26 11:23:24;;;;;;;2.95;1.30;;;24.50;79.50;;;;;;5029955;28;20104;-47
2022/07/26 11:26:04;;;;;;;3.08;1.50;;;24.00;79.50;;;;;;5032836;28;20037;-53
2022/07/26 11:28:41;;;;;;;2.85;1.23;;;24.00;78.70;;;;;;5031156;28;20037;-50
2022/07/26 11:31:07;;;;;;;4.53;1.40;;;24.00;80.60;;;;;;5063322;28;20119;-48
2022/07/26 11:33:40;;;;;;;3.60;1.20;;;23.90;80.10;;;;;;5032376;28;20057;-46
2022/07/26 11:36:07;;;;;;;2.60;1.27;;;23.70;81.00;;;;;;5032530;28;20098;-45
2022/07/26 11:39:03;;;;;;;2.75;1.20;;;23.80;81.40;;;;;;5032292;28;20013;-51
2022/07/26 11:41:30;;;;;;;4.30;1.50;;;23.90;82.10;;;;;;5030601;28;20050;-48
2022/07/26 11:43:57;;;;;;;3.70;1.30;;;23.90;79.60;;;;;;5031745;28;20101;-49
2022/07/26 11:46:35;;;;;;;2.85;1.35;;;23.30;80.50;;;;;;5032044;28;20033;-48
2022/07/26 11:49:01;;;;;;;4.05;1.45;;;22.90;80.90;;;;;;5062999;28;20061;-55
2022/07/26 11:51:26;;;;;;;1.98;1.20;;;22.90;82.30;;;;;;5031689;28;20041;-44
2022/07/26 11:54:01;;;;;;;2.35;1.30;;;23.10;83.10;;;;;;5031799;28;20025;-55
2022/07/26 11:56:29;;;;;;;3.50;1.35;;;22.80;81.70;;;;;;5035276;28;20498;-46
2022/07/26 11:58:56;;;;;;;2.00;1.10;;;22.90;81.90;;;;;;5051429;28;20537;-53
2022/07/26 12:01:23;;;;;;;2.13;1.35;;;22.70;83.30;;;;;;5038262;28;20629;-49
2022/07/26 12:03:51;;;;;;;3.38;1.50;;;22.70;81.70;;;;;;5031806;28;20032;-48
2022/07/26 12:06:20;;;;;;;1.90;1.53;;;22.50;82.60;;;;;;5031470;28;20028;-48
2022/07/26 12:08:47;;;;;;;3.85;1.77;;;22.50;83.50;;;;;;5031841;28;20025;-48
2022/07/26 12:11:14;;;;;;;3.13;1.73;;;22.40;84.10;;;;;;5030048;28;20087;-47
2022/07/26 12:14:06;;;;;;;3.17;1.77;;;22.50;84.00;;;;;;5031838;28;20026;-53
2022/07/26 12:16:41;;;;;;;3.83;2.03;;;22.50;82.70;;;;;;5030880;28;20026;-50
2022/07/26 12:19:27;;;;;;;2.50;1.80;;;22.40;82.00;;;;;;5034238;28;20107;-48
2022/07/26 12:22:12;;;;;;;3.95;1.85;;;22.40;83.80;;;;;;5031577;28;20025;-49
2022/07/26 12:24:37;;;;;;;3.45;2.05;;;22.40;85.70;;;;;;5026039;28;20021;-50
2022/07/26 12:27:08;;;;;;;2.63;1.48;;;22.30;83.10;;;;;;5030345;28;20068;-46
2022/07/26 12:29:35;;;;;;;3.83;1.67;;;22.40;85.50;;;;;;5031347;28;20017;-54
2022/07/26 12:32:10;;;;;;;3.10;1.63;;;22.50;83.80;;;;;;5031287;28;20033;-49
2022/07/26 12:34:37;;;;;;;2.63;1.50;;;22.50;84.50;;;;;;5031099;28;20433;-49
2022/07/26 12:37:10;;;;;;;2.97;1.40;;;22.40;83.70;;;;;;5035809;28;20480;-46
2022/07/26 12:39:37;;;;;;;3.95;1.58;;;22.40;85.80;;;;;;5031430;28;20079;-48
2022/07/26 12:42:21;;;;;;;2.63;1.60;;;22.40;85.00;;;;;;5030367;28;20049;-50
2022/07/26 12:44:47;;;;;;;2.97;1.88;;;22.40;83.60;;;;;;5031174;28;20024;-46
2022/07/26 12:47:13;;;;;;;4.22;1.80;;;22.20;84.10;;;;;;5031235;28;20373;-48
2022/07/26 12:49:39;;;;;;;2.92;1.90;;;22.00;85.40;;;;;;5033093;28;20456;-52
2022/07/26 12:52:05;;;;;;;4.38;1.75;;;21.90;86.00;;;;;;5030618;28;20018;-46